createdAt,value
2018-03-04T00:00:47.382Z,79.53
2018-03-04T00:02:50.772Z,82.67
2018-03-04T00:04:54.146Z,79.90
2018-03-04T00:06:56.792Z,82.77
2018-03-04T00:08:59.397Z,83.43
2018-03-04T00:11:02.024Z,77.97
2018-03-04T00:13:04.633Z,81.13
2018-03-04T00:15:07.310Z,79.60
2018-03-04T00:17:09.934Z,83.43
2018-03-04T00:19:12.543Z,82.73
2018-03-04T00:21:15.154Z,83.93
2018-03-04T00:23:18.517Z,85.70
2018-03-04T00:25:21.129Z,81.63
2018-03-04T00:27:24.539Z,79.17
2018-03-04T00:29:27.147Z,80.73
2018-03-04T00:31:29.765Z,80.73
2018-03-04T00:33:33.183Z,82.10
2018-03-04T00:35:35.824Z,75.43
2018-03-04T00:37:38.440Z,81.70
2018-03-04T00:39:41.097Z,79.03
2018-03-04T00:41:44.459Z,80.53
2018-03-04T00:43:47.068Z,80.40
2018-03-04T00:45:50.435Z,77.30
2018-03-04T00:47:53.037Z,80.17
2018-03-04T00:49:55.651Z,81.37
2018-03-04T00:51:58.258Z,79.47
2018-03-04T00:54:01.010Z,75.37
2018-03-04T00:56:03.604Z,79.83
2018-03-04T00:58:06.209Z,78.27
2018-03-04T01:00:09.611Z,77.03
2018-03-04T01:02:12.201Z,76.40
2018-03-04T01:04:14.829Z,77.67
2018-03-04T01:06:17.580Z,74.50
2018-03-04T01:08:20.920Z,74.23
2018-03-04T01:10:23.561Z,73.23
2018-03-04T01:12:26.149Z,73.23
2018-03-04T01:14:29.642Z,70.17
2018-03-04T01:16:32.226Z,70.60
2018-03-04T01:18:35.586Z,70.77
2018-03-04T01:20:38.194Z,71.00
2018-03-04T01:22:41.582Z,78.77
2018-03-04T01:24:44.956Z,71.00
2018-03-04T01:26:47.550Z,80.27
2018-03-04T01:28:50.898Z,71.97
2018-03-04T01:30:53.540Z,68.60
2018-03-04T01:32:56.137Z,71.40
2018-03-04T01:34:58.722Z,66.17
2018-03-04T01:37:01.377Z,66.33
2018-03-04T01:39:03.969Z,61.53
2018-03-04T01:41:06.630Z,60.37
2018-03-04T01:43:09.216Z,60.00
2018-03-04T01:45:11.843Z,58.47
2018-03-04T01:47:15.224Z,57.07
2018-03-04T01:49:17.894Z,55.87
2018-03-04T01:51:20.469Z,55.47
2018-03-04T01:53:23.093Z,51.83
2018-03-04T01:55:25.694Z,51.30
2018-03-04T01:57:28.329Z,51.00
2018-03-04T01:59:30.949Z,49.53
2018-03-04T02:01:33.545Z,46.60
2018-03-04T02:03:36.149Z,49.40
2018-03-04T02:05:39.078Z,43.07
2018-03-04T02:07:41.664Z,39.33
2018-03-04T02:09:44.277Z,41.43
2018-03-04T02:11:46.954Z,39.13
2018-03-04T02:13:49.558Z,37.70
2018-03-04T02:15:52.166Z,35.87
2018-03-04T02:17:54.800Z,41.10
2018-03-04T02:19:57.414Z,36.60
2018-03-04T02:22:00.001Z,35.73
2018-03-04T02:24:02.596Z,36.93
2018-03-04T02:26:05.285Z,33.93
2018-03-04T02:28:07.873Z,37.17
2018-03-04T02:30:10.469Z,35.53
2018-03-04T02:32:13.061Z,35.27
2018-03-04T02:34:15.662Z,36.90
2018-03-04T02:36:19.306Z,34.80
2018-03-04T02:38:21.892Z,34.77
2018-03-04T02:40:24.505Z,34.37
2018-03-04T02:42:27.868Z,33.90
2018-03-04T02:44:30.469Z,34.17
2018-03-04T02:46:33.892Z,34.50
2018-03-04T02:48:36.474Z,34.33
2018-03-04T02:50:39.100Z,34.17
2018-03-04T02:52:41.694Z,33.83
2018-03-04T02:54:44.319Z,33.93
2018-03-04T02:56:46.921Z,35.50
2018-03-04T02:58:49.540Z,33.30
2018-03-04T03:00:52.982Z,34.20
2018-03-04T03:02:55.585Z,32.97
2018-03-04T03:04:58.937Z,31.70
2018-03-04T03:07:01.541Z,33.90
2018-03-04T03:09:04.935Z,31.77
2018-03-04T03:11:08.285Z,29.77
2018-03-04T03:13:10.899Z,29.50
2018-03-04T03:15:14.248Z,31.53
2018-03-04T03:17:17.622Z,29.43
2018-03-04T03:19:20.290Z,28.30
2018-03-04T03:21:22.955Z,28.10
2018-03-04T03:23:25.557Z,29.63
2018-03-04T03:25:28.155Z,29.53
2018-03-04T03:27:30.739Z,28.00
2018-03-04T03:29:33.345Z,28.97
2018-03-04T03:31:36.690Z,26.80
2018-03-04T03:33:39.282Z,28.03
2018-03-04T03:35:41.929Z,28.17
2018-03-04T03:37:44.541Z,25.80
2018-03-04T03:39:47.240Z,25.37
2018-03-04T03:41:49.841Z,25.00
2018-03-04T03:43:52.427Z,25.37
2018-03-04T03:45:55.093Z,23.23
2018-03-04T03:47:57.710Z,25.80
2018-03-04T03:50:00.380Z,23.60
2018-03-04T03:52:02.957Z,21.47
2018-03-04T03:54:05.586Z,21.80
2018-03-04T03:56:08.185Z,21.37
2018-03-04T03:58:10.814Z,20.97
2018-03-04T04:00:13.406Z,20.90
2018-03-04T04:02:16.012Z,21.77
2018-03-04T04:04:18.606Z,20.43
2018-03-04T04:06:21.207Z,20.50
2018-03-04T04:08:23.795Z,19.67
2018-03-04T04:10:26.393Z,20.33
2018-03-04T04:12:29.006Z,21.50
2018-03-04T04:14:32.348Z,22.17
2018-03-04T04:16:34.973Z,19.97
2018-03-04T04:18:37.588Z,20.27
2018-03-04T04:20:40.190Z,21.67
2018-03-04T04:22:42.813Z,19.27
2018-03-04T04:24:46.161Z,20.50
2018-03-04T04:26:48.786Z,19.37
2018-03-04T04:28:51.377Z,20.30
2018-03-04T04:30:53.960Z,21.03
2018-03-04T04:32:56.620Z,20.30
2018-03-04T04:34:59.230Z,21.97
2018-03-04T04:37:01.835Z,20.93
2018-03-04T04:39:04.450Z,20.43
2018-03-04T04:41:07.036Z,20.70
2018-03-04T04:43:09.621Z,20.97
2018-03-04T04:45:12.221Z,21.30
2018-03-04T04:47:14.904Z,20.30
2018-03-04T04:49:17.519Z,20.40
2018-03-04T04:51:20.103Z,21.03
2018-03-04T04:53:22.682Z,21.13
2018-03-04T04:55:25.308Z,20.40
2018-03-04T04:57:28.665Z,22.67
2018-03-04T04:59:31.269Z,21.40
2018-03-04T05:01:33.861Z,21.67
2018-03-04T05:03:37.224Z,20.20
2018-03-04T05:05:39.877Z,20.57
2018-03-04T05:07:42.461Z,20.57
2018-03-04T05:09:45.835Z,22.13
2018-03-04T05:11:48.438Z,21.40
2018-03-04T05:13:51.051Z,21.73
2018-03-04T05:15:53.667Z,20.57
2018-03-04T05:17:57.026Z,20.87
2018-03-04T05:19:59.629Z,21.07
2018-03-04T05:22:02.206Z,21.87
2018-03-04T05:24:04.837Z,21.03
2018-03-04T05:26:07.459Z,20.73
2018-03-04T05:28:10.063Z,20.90
2018-03-04T05:30:12.662Z,21.33
2018-03-04T05:32:15.378Z,20.70
2018-03-04T05:34:17.997Z,21.00
2018-03-04T05:36:21.360Z,20.90
2018-03-04T05:38:23.962Z,21.70
2018-03-04T05:40:27.317Z,22.07
2018-03-04T05:42:29.913Z,22.77
2018-03-04T05:44:32.560Z,23.93
2018-03-04T05:46:35.153Z,23.77
2018-03-04T05:48:37.760Z,22.70
2018-03-04T05:50:41.117Z,20.77
2018-03-04T05:52:43.757Z,20.97
2018-03-04T05:54:47.132Z,21.80
2018-03-04T05:56:49.709Z,20.33
2018-03-04T05:58:52.318Z,21.20
2018-03-04T06:00:54.934Z,19.13
2018-03-04T06:02:58.314Z,19.73
2018-03-04T06:05:01.769Z,20.07
2018-03-04T06:07:04.501Z,20.77
2018-03-04T06:09:07.882Z,20.23
2018-03-04T06:11:10.484Z,19.80
2018-03-04T06:13:13.070Z,19.10
2018-03-04T06:15:15.681Z,18.43
2018-03-04T06:17:18.286Z,21.03
2018-03-04T06:19:21.670Z,21.43
2018-03-04T06:21:24.268Z,19.00
2018-03-04T06:23:27.646Z,20.27
2018-03-04T06:25:31.033Z,18.50
2018-03-04T06:27:34.401Z,19.87
2018-03-04T06:29:37.009Z,19.50
2018-03-04T06:31:40.390Z,17.70
2018-03-04T06:33:42.974Z,17.67
2018-03-04T06:35:46.360Z,19.10
2018-03-04T06:37:49.754Z,17.30
2018-03-04T06:39:53.127Z,18.47
2018-03-04T06:41:55.731Z,18.90
2018-03-04T06:43:59.081Z,18.53
2018-03-04T06:46:01.704Z,25.47
2018-03-04T06:48:04.286Z,15.50
2018-03-04T06:50:06.888Z,15.70
2018-03-04T06:52:09.536Z,15.53
2018-03-04T06:54:12.135Z,15.60
2018-03-04T06:56:14.778Z,17.20
2018-03-04T06:58:17.781Z,16.50
2018-03-04T07:00:20.377Z,16.83
2018-03-04T07:02:23.001Z,17.60
2018-03-04T07:04:26.376Z,18.97
2018-03-04T07:06:28.977Z,26.47
2018-03-04T07:08:32.367Z,24.37
2018-03-04T07:10:35.734Z,23.63
2018-03-04T07:12:38.345Z,19.03
2018-03-04T07:14:40.929Z,20.77
2018-03-04T07:16:43.637Z,22.20
2018-03-04T07:18:47.008Z,17.40
2018-03-04T07:20:49.595Z,15.10
2018-03-04T07:22:52.174Z,15.80
2018-03-04T07:24:54.781Z,16.30
2018-03-04T07:26:58.201Z,15.53
2018-03-04T07:29:00.802Z,15.80
2018-03-04T07:31:03.420Z,15.53
2018-03-04T07:33:06.176Z,15.70
2018-03-04T07:35:08.833Z,15.97
2018-03-04T07:37:11.466Z,18.47
2018-03-04T07:39:14.818Z,16.60
2018-03-04T07:41:17.422Z,19.20
2018-03-04T07:43:20.785Z,18.43
2018-03-04T07:45:23.395Z,19.70
2018-03-04T07:47:26.742Z,18.73
2018-03-04T07:49:29.322Z,18.50
2018-03-04T07:51:31.934Z,18.60
2018-03-04T07:53:35.294Z,21.43
2018-03-04T07:55:37.920Z,20.23
2018-03-04T07:57:40.789Z,22.17
2018-03-04T07:59:44.134Z,21.60
2018-03-04T08:01:46.746Z,22.77
2018-03-04T08:03:50.250Z,21.50
2018-03-04T08:05:53.711Z,22.57
2018-03-04T08:07:56.296Z,19.83
2018-03-04T08:09:58.883Z,18.87
2018-03-04T08:12:02.254Z,18.93
2018-03-04T08:14:04.851Z,18.67
2018-03-04T08:16:08.233Z,17.60
2018-03-04T08:18:11.596Z,16.20
2018-03-04T08:20:14.204Z,15.93
2018-03-04T08:22:17.581Z,16.40
2018-03-04T08:24:32.034Z,14.77
2018-03-04T08:26:46.445Z,19.57
2018-03-04T08:28:49.053Z,15.90
2018-03-04T08:30:51.634Z,19.93
2018-03-04T08:32:54.238Z,24.23
2018-03-04T08:34:56.878Z,20.33
2018-03-04T08:37:00.255Z,40.90
2018-03-04T08:39:02.877Z,39.13
2018-03-04T08:41:06.218Z,22.07
2018-03-04T08:43:08.826Z,18.40
2018-03-04T08:45:11.412Z,18.90
2018-03-04T08:47:14.773Z,18.73
2018-03-04T08:49:17.371Z,19.03
2018-03-04T08:51:20.721Z,21.37
2018-03-04T08:53:23.350Z,19.97
2018-03-04T08:55:26.746Z,20.83
2018-03-04T08:57:29.361Z,19.90
2018-03-04T08:59:32.047Z,20.83
2018-03-04T09:01:34.646Z,21.73
2018-03-04T09:03:37.233Z,24.90
2018-03-04T09:05:40.625Z,22.57
2018-03-04T09:07:43.981Z,25.23
2018-03-04T09:09:46.579Z,25.50
2018-03-04T09:11:49.173Z,25.03
2018-03-04T09:13:51.789Z,25.13
2018-03-04T09:15:54.385Z,25.87
2018-03-04T09:17:56.983Z,27.43
2018-03-04T09:20:00.378Z,29.43
2018-03-04T09:22:03.716Z,30.13
2018-03-04T09:24:06.357Z,31.03
2018-03-04T09:26:09.013Z,31.53
2018-03-04T09:28:12.377Z,30.27
2018-03-04T09:30:14.987Z,30.27
2018-03-04T09:32:18.325Z,28.27
2018-03-04T09:34:20.918Z,31.83
2018-03-04T09:36:23.538Z,27.50
2018-03-04T09:38:26.969Z,29.13
2018-03-04T09:40:29.554Z,31.87
2018-03-04T09:42:32.165Z,31.90
2018-03-04T09:44:35.526Z,30.17
2018-03-04T09:46:38.159Z,27.87
2018-03-04T09:48:40.783Z,29.83
2018-03-04T09:50:43.401Z,27.63
2018-03-04T09:52:46.009Z,28.50
2018-03-04T09:54:48.633Z,28.90
2018-03-04T09:56:52.013Z,29.67
2018-03-04T09:58:54.615Z,28.20
2018-03-04T10:00:57.970Z,26.90
2018-03-04T10:03:00.579Z,29.37
2018-03-04T10:05:03.929Z,32.20
2018-03-04T10:07:06.544Z,29.20
2018-03-04T10:09:09.206Z,25.80
2018-03-04T10:11:12.574Z,26.87
2018-03-04T10:13:15.210Z,26.57
2018-03-04T10:15:17.813Z,25.47
2018-03-04T10:17:20.408Z,24.07
2018-03-04T10:19:23.058Z,24.43
2018-03-04T10:21:25.702Z,26.37
2018-03-04T10:23:28.333Z,24.67
2018-03-04T10:25:30.941Z,25.17
2018-03-04T10:27:33.516Z,25.30
2018-03-04T10:29:36.143Z,24.03
2018-03-04T10:31:38.745Z,24.03
2018-03-04T10:33:42.121Z,23.93
2018-03-04T10:35:44.718Z,25.77
2018-03-04T10:37:48.164Z,25.60
2018-03-04T10:39:51.549Z,25.50
2018-03-04T10:41:54.134Z,26.53
2018-03-04T10:43:56.788Z,24.73
2018-03-04T10:45:59.390Z,25.43
2018-03-04T10:48:01.996Z,25.47
2018-03-04T10:50:05.414Z,27.70
2018-03-04T10:52:08.041Z,28.47
2018-03-04T10:54:10.669Z,29.57
2018-03-04T10:56:13.253Z,29.90
2018-03-04T10:58:15.854Z,30.47
2018-03-04T11:00:24.273Z,30.27
2018-03-04T11:02:32.473Z,27.87
2018-03-04T11:04:35.086Z,28.23
2018-03-04T11:06:38.437Z,29.80
2018-03-04T11:08:41.025Z,29.43
2018-03-04T11:10:43.654Z,29.43
2018-03-04T11:12:46.237Z,28.63
2018-03-04T11:14:48.878Z,26.53
2018-03-04T11:16:51.493Z,25.80
2018-03-04T11:18:54.084Z,26.07
2018-03-04T11:20:56.693Z,25.77
2018-03-04T11:23:00.081Z,26.83
2018-03-04T11:25:03.430Z,27.87
2018-03-04T11:27:06.130Z,29.23
2018-03-04T11:29:08.726Z,27.67
2018-03-04T11:31:12.101Z,31.97
2018-03-04T11:33:14.706Z,33.47
2018-03-04T11:35:17.464Z,36.53
2018-03-04T11:37:20.832Z,37.60
2018-03-04T11:39:23.460Z,37.57
2018-03-04T11:41:26.038Z,35.53
2018-03-04T11:43:28.658Z,36.83
2018-03-04T11:45:31.266Z,33.93
2018-03-04T11:47:33.894Z,30.73
2018-03-04T11:49:39.439Z,31.13
2018-03-04T11:51:42.038Z,30.80
2018-03-04T11:53:44.710Z,32.90
2018-03-04T11:55:47.288Z,32.40
2018-03-04T11:57:49.909Z,29.00
2018-03-04T11:59:52.577Z,30.27
2018-03-04T12:01:55.178Z,33.13
2018-03-04T12:03:57.845Z,33.90
2018-03-04T12:06:01.228Z,33.17
2018-03-04T12:08:04.598Z,32.40
2018-03-04T12:10:07.982Z,32.77
2018-03-04T12:12:11.345Z,33.67
2018-03-04T12:14:13.931Z,36.20
2018-03-04T12:16:16.562Z,33.67
2018-03-04T12:18:19.165Z,36.20
2018-03-04T12:20:21.811Z,40.13
2018-03-04T12:22:24.389Z,41.13
2018-03-04T12:24:27.018Z,40.53
2018-03-04T12:26:30.378Z,48.13
2018-03-04T12:28:32.965Z,36.23
2018-03-04T12:30:35.648Z,36.23
2018-03-04T12:32:38.290Z,38.70
2018-03-04T12:34:40.906Z,36.90
2018-03-04T12:36:44.267Z,38.40
2018-03-04T12:38:46.869Z,36.73
2018-03-04T12:40:50.290Z,37.53
2018-03-04T12:42:52.891Z,36.00
2018-03-04T12:44:55.484Z,41.77
2018-03-04T12:46:58.086Z,43.47
2018-03-04T12:49:00.700Z,44.83
2018-03-04T12:51:03.332Z,43.93
2018-03-04T12:53:05.949Z,42.40
2018-03-04T12:55:08.591Z,46.17
2018-03-04T12:57:11.954Z,45.63
2018-03-04T12:59:14.558Z,50.10
2018-03-04T13:01:18.001Z,44.70
2018-03-04T13:03:20.563Z,46.63
2018-03-04T13:05:23.145Z,43.37
2018-03-04T13:07:25.771Z,43.77
2018-03-04T13:09:29.130Z,41.23
2018-03-04T13:11:31.742Z,49.23
2018-03-04T13:13:35.114Z,46.50
2018-03-04T13:15:37.716Z,42.40
2018-03-04T13:17:40.361Z,39.90
2018-03-04T13:19:43.010Z,41.57
2018-03-04T13:21:46.383Z,42.90
2018-03-04T13:23:48.970Z,40.53
2018-03-04T13:25:51.611Z,41.23
2018-03-04T13:27:54.246Z,42.23
2018-03-04T13:29:56.859Z,40.60
2018-03-04T13:32:00.220Z,41.23
2018-03-04T13:34:02.841Z,40.80
2018-03-04T13:36:05.461Z,41.33
2018-03-04T13:38:08.107Z,40.17
2018-03-04T13:40:10.702Z,42.53
2018-03-04T13:42:13.278Z,41.80
2018-03-04T13:44:15.929Z,43.73
2018-03-04T13:46:18.514Z,43.90
2018-03-04T13:48:21.135Z,43.50
2018-03-04T13:50:24.510Z,45.27
2018-03-04T13:52:27.099Z,45.23
2018-03-04T13:54:30.523Z,46.50
2018-03-04T13:56:33.120Z,44.03
2018-03-04T13:58:35.749Z,46.23
2018-03-04T14:00:39.138Z,44.90
2018-03-04T14:02:42.505Z,46.90
2018-03-04T14:04:45.143Z,47.77
2018-03-04T14:06:47.726Z,47.43
2018-03-04T14:08:50.458Z,46.07
2018-03-04T14:10:53.873Z,47.97
2018-03-04T14:12:56.515Z,45.00
2018-03-04T14:14:59.193Z,46.50
2018-03-04T14:17:02.574Z,45.40
2018-03-04T14:19:05.187Z,46.53
2018-03-04T14:21:07.789Z,45.87
2018-03-04T14:23:10.397Z,47.43
2018-03-04T14:25:13.022Z,45.10
2018-03-04T14:27:15.613Z,50.17
2018-03-04T14:29:18.228Z,48.13
2018-03-04T14:31:20.873Z,50.37
2018-03-04T14:33:23.497Z,50.77
2018-03-04T14:35:26.854Z,50.67
2018-03-04T14:37:29.661Z,49.40
2018-03-04T14:39:33.033Z,49.37
2018-03-04T14:41:35.655Z,51.23
2018-03-04T14:43:38.345Z,49.93
2018-03-04T14:45:40.950Z,49.33
2018-03-04T14:47:43.558Z,51.47
2018-03-04T14:49:46.926Z,50.07
2018-03-04T14:51:49.534Z,49.53
2018-03-04T14:53:52.188Z,50.43
2018-03-04T14:55:55.568Z,50.47
2018-03-04T14:57:58.154Z,49.07
2018-03-04T15:00:00.790Z,48.60
2018-03-04T15:02:03.392Z,51.60
2018-03-04T15:04:06.000Z,52.00
2018-03-04T15:06:08.639Z,51.70
2018-03-04T15:08:11.269Z,49.83
2018-03-04T15:10:13.889Z,49.53
2018-03-04T15:12:16.490Z,48.90
2018-03-04T15:14:19.930Z,50.70
2018-03-04T15:16:23.308Z,46.70
2018-03-04T15:18:25.938Z,46.90
2018-03-04T15:20:29.302Z,47.17
2018-03-04T15:22:31.892Z,45.70
2018-03-04T15:24:34.532Z,45.73
2018-03-04T15:26:37.133Z,42.97
2018-03-04T15:28:39.757Z,41.73
2018-03-04T15:30:42.354Z,39.43
2018-03-04T15:32:44.944Z,38.97
2018-03-04T15:34:48.318Z,41.13
2018-03-04T15:36:50.899Z,42.73
2018-03-04T15:38:53.554Z,43.50
2018-03-04T15:40:56.220Z,42.27
2018-03-04T15:42:58.830Z,42.40
2018-03-04T15:45:01.468Z,43.83
2018-03-04T15:47:04.066Z,44.77
2018-03-04T15:49:06.665Z,45.03
2018-03-04T15:51:09.285Z,44.77
2018-03-04T15:53:12.639Z,43.50
2018-03-04T15:55:15.250Z,41.93
2018-03-04T15:57:18.633Z,43.67
2018-03-04T15:59:22.013Z,42.67
2018-03-04T16:01:24.615Z,42.77
2018-03-04T16:03:27.208Z,44.90
2018-03-04T16:05:29.838Z,45.23
2018-03-04T16:07:32.432Z,45.37
2018-03-04T16:09:35.829Z,48.47
2018-03-04T16:11:38.445Z,46.50
2018-03-04T16:13:41.058Z,46.50
2018-03-04T16:15:44.445Z,45.07
2018-03-04T16:17:47.054Z,46.83
2018-03-04T16:19:49.743Z,47.93
2018-03-04T16:21:52.338Z,47.10
2018-03-04T16:23:54.951Z,50.10
2018-03-04T16:25:58.306Z,48.20
2018-03-04T16:28:00.978Z,46.90
2018-03-04T16:30:03.634Z,48.00
2018-03-04T16:32:06.237Z,48.03
2018-03-04T16:34:08.854Z,49.87
2018-03-04T16:36:11.507Z,51.93
2018-03-04T16:38:14.119Z,49.07
2018-03-04T16:40:16.732Z,51.60
2018-03-04T16:42:19.335Z,52.40
2018-03-04T16:44:21.973Z,48.80
2018-03-04T16:46:25.389Z,49.30
2018-03-04T16:48:28.013Z,55.60
2018-03-04T16:50:30.649Z,54.67
2018-03-04T16:52:33.334Z,54.20
2018-03-04T16:54:36.740Z,53.10
2018-03-04T16:56:40.090Z,49.47
2018-03-04T16:58:42.699Z,53.43
2018-03-04T17:00:46.104Z,52.23
2018-03-04T17:02:49.461Z,50.83
2018-03-04T17:04:52.097Z,53.73
2018-03-04T17:06:54.707Z,52.60
2018-03-04T17:08:57.330Z,52.70
2018-03-04T17:10:59.950Z,51.33
2018-03-04T17:13:02.552Z,50.47
2018-03-04T17:15:05.922Z,50.60
2018-03-04T17:17:08.541Z,52.60
2018-03-04T17:19:11.202Z,51.70
2018-03-04T17:21:14.592Z,53.93
2018-03-04T17:23:17.949Z,52.90
2018-03-04T17:25:20.941Z,50.57
2018-03-04T17:27:23.550Z,52.60
2018-03-04T17:29:26.909Z,52.37
2018-03-04T17:31:31.077Z,52.30
2018-03-04T17:33:33.673Z,54.50
2018-03-04T17:35:36.262Z,53.80
2018-03-04T17:37:38.905Z,53.63
2018-03-04T17:39:41.527Z,53.27
2018-03-04T17:41:44.138Z,54.60
2018-03-04T17:43:46.769Z,54.47
2018-03-04T17:45:49.375Z,54.33
2018-03-04T17:47:51.975Z,51.43
2018-03-04T17:49:54.597Z,57.07
2018-03-04T17:51:57.200Z,52.57
2018-03-04T17:53:59.781Z,53.70
2018-03-04T17:56:02.406Z,53.27
2018-03-04T17:58:05.005Z,53.10
2018-03-04T18:00:08.366Z,54.67
2018-03-04T18:02:11.010Z,53.03
2018-03-04T18:04:13.609Z,52.63
2018-03-04T18:06:16.266Z,53.03
2018-03-04T18:08:18.858Z,53.00
2018-03-04T18:10:21.475Z,55.13
2018-03-04T18:12:24.858Z,55.70
2018-03-04T18:14:27.486Z,53.77
2018-03-04T18:16:30.168Z,57.77
2018-03-04T18:18:32.797Z,52.67
2018-03-04T18:20:36.152Z,48.87
2018-03-04T18:22:38.743Z,51.13
2018-03-04T18:24:41.349Z,49.37
2018-03-04T18:26:43.931Z,50.23
2018-03-04T18:28:46.539Z,56.67
2018-03-04T18:30:49.141Z,61.10
2018-03-04T18:32:51.783Z,54.03
2018-03-04T18:34:54.410Z,54.80
2018-03-04T18:36:57.762Z,50.80
2018-03-04T18:39:00.377Z,52.03
2018-03-04T18:41:03.827Z,49.73
2018-03-04T18:43:06.482Z,52.80
2018-03-04T18:45:09.091Z,50.73
2018-03-04T18:47:11.677Z,53.13
2018-03-04T18:49:14.277Z,53.33
2018-03-04T18:51:16.893Z,53.10
2018-03-04T18:53:19.498Z,52.10
2018-03-04T18:55:22.121Z,49.97
2018-03-04T18:57:24.800Z,50.83
2018-03-04T18:59:27.417Z,53.03
2018-03-04T19:01:30.053Z,55.37
2018-03-04T19:03:32.724Z,52.70
2018-03-04T19:05:35.343Z,55.27
2018-03-04T19:07:37.946Z,54.17
2018-03-04T19:09:41.346Z,55.60
2018-03-04T19:11:43.974Z,52.37
2018-03-04T19:13:46.585Z,54.90
2018-03-04T19:15:49.950Z,53.70
2018-03-04T19:17:52.593Z,56.30
2018-03-04T19:19:55.218Z,52.83
2018-03-04T19:21:58.612Z,50.80
2018-03-04T19:24:01.214Z,52.87
2018-03-04T19:26:03.813Z,52.10
2018-03-04T19:28:06.509Z,58.30
2018-03-04T19:30:09.189Z,52.83
2018-03-04T19:32:11.777Z,54.77
2018-03-04T19:34:14.397Z,51.40
2018-03-04T19:36:17.021Z,52.20
2018-03-04T19:38:19.669Z,53.63
2018-03-04T19:40:22.263Z,51.70
2018-03-04T19:42:24.881Z,51.27
2018-03-04T19:44:27.481Z,49.53
2018-03-04T19:46:30.101Z,49.67
2018-03-04T19:48:32.723Z,52.57
2018-03-04T19:50:35.348Z,52.97
2018-03-04T19:52:37.975Z,51.97
2018-03-04T19:54:40.575Z,51.07
2018-03-04T19:56:43.206Z,50.60
2018-03-04T19:58:45.789Z,49.00
2018-03-04T20:00:48.458Z,50.97
2018-03-04T20:02:51.062Z,50.80
2018-03-04T20:04:53.701Z,50.97
2018-03-04T20:06:56.354Z,49.87
2018-03-04T20:08:58.934Z,49.90
2018-03-04T20:11:02.323Z,49.87
2018-03-04T20:13:05.782Z,48.20
2018-03-04T20:15:08.390Z,46.00
2018-03-04T20:17:11.824Z,50.30
2018-03-04T20:19:14.434Z,49.43
2018-03-04T20:21:17.030Z,48.73
2018-03-04T20:23:20.403Z,49.73
2018-03-04T20:25:23.016Z,50.00
2018-03-04T20:27:26.385Z,49.30
2018-03-04T20:29:29.041Z,51.23
2018-03-04T20:31:31.668Z,51.23
2018-03-04T20:33:34.271Z,50.93
2018-03-04T20:35:36.889Z,50.40
2018-03-04T20:37:40.292Z,52.17
2018-03-04T20:39:43.675Z,51.47
2018-03-04T20:41:46.307Z,50.63
2018-03-04T20:43:48.905Z,48.50
2018-03-04T20:45:51.518Z,50.17
2018-03-04T20:47:54.128Z,50.30
2018-03-04T20:49:56.739Z,50.43
2018-03-04T20:51:59.367Z,49.17
2018-03-04T20:54:01.991Z,50.53
2018-03-04T20:56:04.703Z,51.10
2018-03-04T20:58:07.301Z,51.60
2018-03-04T21:00:09.907Z,53.07
2018-03-04T21:02:12.534Z,55.37
2018-03-04T21:04:15.246Z,55.80
2018-03-04T21:06:17.876Z,52.73
2018-03-04T21:08:20.487Z,51.83
2018-03-04T21:10:23.128Z,50.83
2018-03-04T21:12:25.858Z,51.07
2018-03-04T21:14:28.446Z,52.03
2018-03-04T21:16:31.085Z,50.00
2018-03-04T21:18:33.700Z,50.87
2018-03-04T21:20:37.080Z,49.83
2018-03-04T21:22:39.698Z,49.13
2018-03-04T21:24:42.309Z,49.43
2018-03-04T21:26:45.052Z,47.97
2018-03-04T21:28:47.661Z,48.77
2018-03-04T21:30:50.278Z,50.67
2018-03-04T21:32:53.693Z,47.40
2018-03-04T21:34:56.294Z,53.83
2018-03-04T21:36:58.897Z,53.07
2018-03-04T21:39:01.600Z,55.60
2018-03-04T21:41:04.974Z,53.30
2018-03-04T21:43:07.590Z,55.03
2018-03-04T21:45:10.210Z,53.23
2018-03-04T21:47:12.808Z,54.37
2018-03-04T21:49:16.559Z,53.17
2018-03-04T21:51:19.154Z,54.80
2018-03-04T21:53:21.806Z,53.33
2018-03-04T21:55:24.450Z,53.50
2018-03-04T21:57:27.831Z,53.30
2018-03-04T21:59:31.254Z,53.63
2018-03-04T22:01:33.977Z,50.70
2018-03-04T22:03:36.630Z,50.63
2018-03-04T22:05:40.035Z,49.87
2018-03-04T22:07:42.922Z,49.23
2018-03-04T22:09:45.548Z,49.97
2018-03-04T22:11:48.293Z,50.77
2018-03-04T22:13:50.906Z,49.87
2018-03-04T22:15:53.531Z,49.13
2018-03-04T22:17:56.143Z,49.17
2018-03-04T22:19:58.794Z,50.87
2018-03-04T22:22:02.186Z,49.30
2018-03-04T22:24:04.790Z,50.13
2018-03-04T22:26:07.466Z,47.83
2018-03-04T22:28:10.073Z,48.23
2018-03-04T22:30:12.966Z,49.10
2018-03-04T22:32:15.612Z,44.63
2018-03-04T22:34:18.221Z,44.60
2018-03-04T22:36:20.842Z,45.23
2018-03-04T22:38:23.419Z,45.30
2018-03-04T22:40:26.088Z,46.07
2018-03-04T22:42:28.700Z,43.23
2018-03-04T22:44:31.288Z,44.13
2018-03-04T22:46:34.708Z,43.70
2018-03-04T22:48:38.093Z,53.40
2018-03-04T22:50:40.735Z,49.07
2018-03-04T22:52:43.373Z,45.93
2018-03-04T22:54:46.193Z,47.03
2018-03-04T22:56:48.821Z,48.77
2018-03-04T22:58:52.242Z,47.00
2018-03-04T23:00:54.993Z,47.47
2018-03-04T23:02:58.374Z,46.23
2018-03-04T23:05:01.751Z,47.70
2018-03-04T23:07:04.401Z,46.83
2018-03-04T23:09:07.022Z,45.77
2018-03-04T23:11:10.398Z,46.63
2018-03-04T23:13:13.793Z,49.30
2018-03-04T23:15:16.385Z,47.97
2018-03-04T23:17:19.766Z,47.60
2018-03-04T23:19:23.144Z,47.37
2018-03-04T23:21:25.763Z,45.67
2018-03-04T23:23:28.454Z,47.97
2018-03-04T23:25:31.094Z,45.73
2018-03-04T23:27:34.499Z,44.67
2018-03-04T23:29:37.120Z,46.40
2018-03-04T23:31:39.713Z,47.97
2018-03-04T23:33:42.379Z,48.23
2018-03-04T23:35:44.994Z,51.33
2018-03-04T23:37:47.595Z,49.70
2018-03-04T23:39:50.215Z,47.97
2018-03-04T23:41:52.809Z,44.13
2018-03-04T23:43:56.164Z,43.83
2018-03-04T23:45:58.760Z,44.97
2018-03-04T23:48:02.174Z,42.70
2018-03-04T23:50:04.780Z,44.33
2018-03-04T23:52:07.449Z,44.67
2018-03-04T23:54:10.187Z,47.73
2018-03-04T23:56:12.769Z,45.87
2018-03-04T23:58:16.156Z,46.53
